sensor_id;sensor_type;location;lat;lon;timestamp;P1;durP1;ratioP1;P2;durP2;ratioP2
56419;SDS011;42323;52.170;7.538;2023-02-28T00:01:46;8.10;;;5.95;;
56419;SDS011;42323;52.170;7.538;2023-02-28T00:04:20;8.02;;;6.00;;
56419;SDS011;42323;52.170;7.538;2023-02-28T00:06:46;8.55;;;6.13;;
56419;SDS011;42323;52.170;7.538;2023-02-28T00:09:24;7.68;;;5.60;;
56419;SDS011;42323;52.170;7.538;2023-02-28T00:11:50;10.13;;;6.38;;
56419;SDS011;42323;52.170;7.538;2023-02-28T00:14:26;10.13;;;5.28;;
56419;SDS011;42323;52.170;7.538;2023-02-28T00:17:08;10.32;;;5.57;;
56419;SDS011;42323;52.170;7.538;2023-02-28T00:19:34;11.50;;;5.50;;
56419;SDS011;42323;52.170;7.538;2023-02-28T00:22:01;11.43;;;5.60;;
56419;SDS011;42323;52.170;7.538;2023-02-28T00:24:27;5.82;;;4.57;;
56419;SDS011;42323;52.170;7.538;2023-02-28T00:26:57;7.32;;;5.07;;
56419;SDS011;42323;52.170;7.538;2023-02-28T00:29:23;7.88;;;5.03;;
56419;SDS011;42323;52.170;7.538;2023-02-28T00:31:50;6.13;;;5.35;;
56419;SDS011;42323;52.170;7.538;2023-02-28T00:34:16;7.05;;;5.45;;
56419;SDS011;42323;52.170;7.538;2023-02-28T00:36:43;9.30;;;5.45;;
56419;SDS011;42323;52.170;7.538;2023-02-28T00:39:12;9.80;;;5.47;;
56419;SDS011;42323;52.170;7.538;2023-02-28T00:41:38;8.68;;;5.55;;
56419;SDS011;42323;52.170;7.538;2023-02-28T00:44:05;7.45;;;5.85;;
56419;SDS011;42323;52.170;7.538;2023-02-28T00:46:31;10.35;;;5.53;;
56419;SDS011;42323;52.170;7.538;2023-02-28T00:48:58;6.43;;;5.22;;
56419;SDS011;42323;52.170;7.538;2023-02-28T00:51:24;7.13;;;6.10;;
56419;SDS011;42323;52.170;7.538;2023-02-28T00:53:51;5.35;;;4.40;;
56419;SDS011;42323;52.170;7.538;2023-02-28T00:56:17;6.72;;;5.47;;
56419;SDS011;42323;52.170;7.538;2023-02-28T00:58:44;6.97;;;5.45;;
56419;SDS011;42323;52.170;7.538;2023-02-28T01:01:10;6.65;;;4.85;;
56419;SDS011;42323;52.170;7.538;2023-02-28T01:03:37;7.80;;;5.22;;
56419;SDS011;42323;52.170;7.538;2023-02-28T01:06:04;8.93;;;5.93;;
56419;SDS011;42323;52.170;7.538;2023-02-28T01:08:31;8.02;;;5.45;;
56419;SDS011;42323;52.170;7.538;2023-02-28T01:10:57;8.18;;;5.30;;
56419;SDS011;42323;52.170;7.538;2023-02-28T01:13:24;9.52;;;6.38;;
56419;SDS011;42323;52.170;7.538;2023-02-28T01:15:52;8.45;;;5.32;;
56419;SDS011;42323;52.170;7.538;2023-02-28T01:18:21;5.78;;;5.07;;
56419;SDS011;42323;52.170;7.538;2023-02-28T01:20:48;10.18;;;5.05;;
56419;SDS011;42323;52.170;7.538;2023-02-28T01:23:15;8.25;;;5.45;;
56419;SDS011;42323;52.170;7.538;2023-02-28T01:25:41;6.82;;;5.03;;
56419;SDS011;42323;52.170;7.538;2023-02-28T01:28:08;10.35;;;5.97;;
56419;SDS011;42323;52.170;7.538;2023-02-28T01:30:34;5.93;;;5.28;;
56419;SDS011;42323;52.170;7.538;2023-02-28T01:33:01;7.05;;;5.22;;
56419;SDS011;42323;52.170;7.538;2023-02-28T01:35:27;7.22;;;5.63;;
56419;SDS011;42323;52.170;7.538;2023-02-28T01:37:54;6.30;;;5.18;;
56419;SDS011;42323;52.170;7.538;2023-02-28T01:40:20;9.55;;;5.18;;
56419;SDS011;42323;52.170;7.538;2023-02-28T01:42:48;8.95;;;5.70;;
56419;SDS011;42323;52.170;7.538;2023-02-28T01:48:04;6.68;;;4.65;;
56419;SDS011;42323;52.170;7.538;2023-02-28T01:50:37;6.00;;;5.13;;
56419;SDS011;42323;52.170;7.538;2023-02-28T01:53:09;7.15;;;4.78;;
56419;SDS011;42323;52.170;7.538;2023-02-28T01:55:39;6.93;;;4.97;;
56419;SDS011;42323;52.170;7.538;2023-02-28T01:58:11;9.63;;;4.78;;
56419;SDS011;42323;52.170;7.538;2023-02-28T02:00:37;6.53;;;4.75;;
56419;SDS011;42323;52.170;7.538;2023-02-28T02:03:06;9.40;;;5.50;;
56419;SDS011;42323;52.170;7.538;2023-02-28T02:05:38;7.65;;;5.15;;
56419;SDS011;42323;52.170;7.538;2023-02-28T02:08:10;5.95;;;4.32;;
56419;SDS011;42323;52.170;7.538;2023-02-28T02:10:40;7.85;;;4.88;;
56419;SDS011;42323;52.170;7.538;2023-02-28T02:27:04;6.32;;;5.13;;
56419;SDS011;42323;52.170;7.538;2023-02-28T02:29:47;5.07;;;4.38;;
56419;SDS011;42323;52.170;7.538;2023-02-28T02:35:35;7.28;;;5.50;;
56419;SDS011;42323;52.170;7.538;2023-02-28T02:38:30;8.38;;;4.70;;
56419;SDS011;42323;52.170;7.538;2023-02-28T02:46:48;7.85;;;4.85;;
56419;SDS011;42323;52.170;7.538;2023-02-28T02:49:21;9.68;;;5.28;;
56419;SDS011;42323;52.170;7.538;2023-02-28T02:51:52;7.85;;;5.75;;
56419;SDS011;42323;52.170;7.538;2023-02-28T02:54:22;10.02;;;5.53;;
56419;SDS011;42323;52.170;7.538;2023-02-28T02:56:55;9.15;;;5.13;;
56419;SDS011;42323;52.170;7.538;2023-02-28T02:59:25;11.75;;;6.05;;
56419;SDS011;42323;52.170;7.538;2023-02-28T03:01:58;6.43;;;5.35;;
56419;SDS011;42323;52.170;7.538;2023-02-28T03:04:28;8.95;;;5.50;;
56419;SDS011;42323;52.170;7.538;2023-02-28T03:06:59;7.82;;;5.95;;
56419;SDS011;42323;52.170;7.538;2023-02-28T03:09:25;8.20;;;5.65;;
56419;SDS011;42323;52.170;7.538;2023-02-28T03:11:53;9.25;;;6.30;;
56419;SDS011;42323;52.170;7.538;2023-02-28T03:14:37;11.20;;;5.97;;
56419;SDS011;42323;52.170;7.538;2023-02-28T03:17:30;10.07;;;5.38;;
56419;SDS011;42323;52.170;7.538;2023-02-28T03:25:40;13.80;;;6.28;;
56419;SDS011;42323;52.170;7.538;2023-02-28T03:36:26;8.20;;;5.55;;
56419;SDS011;42323;52.170;7.538;2023-02-28T03:38:59;8.45;;;5.45;;
56419;SDS011;42323;52.170;7.538;2023-02-28T03:41:45;11.38;;;6.05;;
56419;SDS011;42323;52.170;7.538;2023-02-28T03:44:18;7.63;;;5.50;;
56419;SDS011;42323;52.170;7.538;2023-02-28T03:47:03;7.57;;;5.45;;
56419;SDS011;42323;52.170;7.538;2023-02-28T03:49:38;9.35;;;5.50;;
56419;SDS011;42323;52.170;7.538;2023-02-28T03:52:15;8.15;;;5.55;;
56419;SDS011;42323;52.170;7.538;2023-02-28T03:54:48;13.75;;;5.35;;
56419;SDS011;42323;52.170;7.538;2023-02-28T04:00:09;9.75;;;5.60;;
56419;SDS011;42323;52.170;7.538;2023-02-28T04:02:40;5.43;;;4.78;;
56419;SDS011;42323;52.170;7.538;2023-02-28T04:05:07;5.07;;;4.55;;
56419;SDS011;42323;52.170;7.538;2023-02-28T04:07:34;9.68;;;6.25;;
56419;SDS011;42323;52.170;7.538;2023-02-28T04:10:01;10.00;;;6.25;;
56419;SDS011;42323;52.170;7.538;2023-02-28T04:12:27;11.73;;;5.38;;
56419;SDS011;42323;52.170;7.538;2023-02-28T04:14:54;8.35;;;5.28;;
56419;SDS011;42323;52.170;7.538;2023-02-28T04:17:20;6.93;;;5.55;;
56419;SDS011;42323;52.170;7.538;2023-02-28T04:19:47;7.90;;;4.70;;
56419;SDS011;42323;52.170;7.538;2023-02-28T04:22:13;7.25;;;4.50;;
56419;SDS011;42323;52.170;7.538;2023-02-28T04:24:40;7.88;;;5.65;;
56419;SDS011;42323;52.170;7.538;2023-02-28T04:27:07;12.45;;;4.95;;
56419;SDS011;42323;52.170;7.538;2023-02-28T04:29:35;6.90;;;4.93;;
56419;SDS011;42323;52.170;7.538;2023-02-28T04:32:02;7.38;;;5.63;;
56419;SDS011;42323;52.170;7.538;2023-02-28T04:34:30;9.93;;;5.35;;
56419;SDS011;42323;52.170;7.538;2023-02-28T04:36:57;6.32;;;4.35;;
56419;SDS011;42323;52.170;7.538;2023-02-28T04:39:38;7.82;;;5.15;;
56419;SDS011;42323;52.170;7.538;2023-02-28T04:42:05;9.82;;;5.10;;
56419;SDS011;42323;52.170;7.538;2023-02-28T04:44:32;7.07;;;4.93;;
56419;SDS011;42323;52.170;7.538;2023-02-28T04:46:58;8.35;;;6.07;;
56419;SDS011;42323;52.170;7.538;2023-02-28T04:49:25;6.28;;;5.00;;
56419;SDS011;42323;52.170;7.538;2023-02-28T04:51:52;7.90;;;6.20;;
56419;SDS011;42323;52.170;7.538;2023-02-28T04:54:19;10.15;;;5.85;;
56419;SDS011;42323;52.170;7.538;2023-02-28T04:56:46;9.95;;;7.03;;
56419;SDS011;42323;52.170;7.538;2023-02-28T04:59:14;9.63;;;5.90;;
56419;SDS011;42323;52.170;7.538;2023-02-28T05:01:45;9.88;;;5.68;;
56419;SDS011;42323;52.170;7.538;2023-02-28T05:04:15;6.43;;;5.25;;
56419;SDS011;42323;52.170;7.538;2023-02-28T05:06:42;7.95;;;5.53;;
56419;SDS011;42323;52.170;7.538;2023-02-28T05:09:09;6.53;;;5.50;;
56419;SDS011;42323;52.170;7.538;2023-02-28T05:11:37;6.53;;;5.70;;
56419;SDS011;42323;52.170;7.538;2023-02-28T05:14:06;7.18;;;5.97;;
56419;SDS011;42323;52.170;7.538;2023-02-28T05:16:36;8.95;;;5.38;;
56419;SDS011;42323;52.170;7.538;2023-02-28T05:19:04;8.15;;;5.18;;
56419;SDS011;42323;52.170;7.538;2023-02-28T05:21:32;6.85;;;5.05;;
56419;SDS011;42323;52.170;7.538;2023-02-28T05:24:15;7.70;;;5.38;;
56419;SDS011;42323;52.170;7.538;2023-02-28T05:26:49;9.18;;;5.38;;
56419;SDS011;42323;52.170;7.538;2023-02-28T05:29:17;9.52;;;6.53;;
56419;SDS011;42323;52.170;7.538;2023-02-28T05:31:44;11.13;;;5.88;;
56419;SDS011;42323;52.170;7.538;2023-02-28T05:34:10;5.78;;;4.53;;
56419;SDS011;42323;52.170;7.538;2023-02-28T05:36:38;6.00;;;5.03;;
56419;SDS011;42323;52.170;7.538;2023-02-28T05:39:06;7.10;;;4.47;;
56419;SDS011;42323;52.170;7.538;2023-02-28T05:41:39;6.75;;;5.65;;
56419;SDS011;42323;52.170;7.538;2023-02-28T05:44:09;7.65;;;5.30;;
56419;SDS011;42323;52.170;7.538;2023-02-28T05:46:36;6.13;;;4.90;;
56419;SDS011;42323;52.170;7.538;2023-02-28T05:49:02;8.50;;;4.72;;
56419;SDS011;42323;52.170;7.538;2023-02-28T05:51:29;5.03;;;4.32;;
56419;SDS011;42323;52.170;7.538;2023-02-28T05:54:00;5.63;;;5.13;;
56419;SDS011;42323;52.170;7.538;2023-02-28T05:56:27;6.60;;;5.00;;
56419;SDS011;42323;52.170;7.538;2023-02-28T05:58:54;5.53;;;4.88;;
56419;SDS011;42323;52.170;7.538;2023-02-28T06:03:54;5.93;;;5.32;;
56419;SDS011;42323;52.170;7.538;2023-02-28T06:06:20;7.95;;;5.90;;
56419;SDS011;42323;52.170;7.538;2023-02-28T06:08:47;8.90;;;6.22;;
56419;SDS011;42323;52.170;7.538;2023-02-28T06:11:14;7.95;;;6.18;;
56419;SDS011;42323;52.170;7.538;2023-02-28T06:13:40;6.53;;;5.15;;
56419;SDS011;42323;52.170;7.538;2023-02-28T06:16:08;6.30;;;5.50;;
56419;SDS011;42323;52.170;7.538;2023-02-28T06:18:37;7.47;;;5.68;;
56419;SDS011;42323;52.170;7.538;2023-02-28T06:21:04;8.05;;;6.78;;
56419;SDS011;42323;52.170;7.538;2023-02-28T06:23:33;6.75;;;5.35;;
56419;SDS011;42323;52.170;7.538;2023-02-28T06:26:00;11.48;;;6.05;;
56419;SDS011;42323;52.170;7.538;2023-02-28T06:28:27;7.28;;;5.63;;
56419;SDS011;42323;52.170;7.538;2023-02-28T06:30:53;8.70;;;6.72;;
56419;SDS011;42323;52.170;7.538;2023-02-28T06:33:20;8.23;;;5.60;;
56419;SDS011;42323;52.170;7.538;2023-02-28T06:35:47;12.30;;;6.15;;
56419;SDS011;42323;52.170;7.538;2023-02-28T06:38:16;7.03;;;5.18;;
56419;SDS011;42323;52.170;7.538;2023-02-28T06:40:44;6.53;;;5.88;;
56419;SDS011;42323;52.170;7.538;2023-02-28T06:43:11;7.93;;;6.60;;
56419;SDS011;42323;52.170;7.538;2023-02-28T06:45:43;6.80;;;5.68;;
56419;SDS011;42323;52.170;7.538;2023-02-28T06:48:10;8.43;;;5.72;;
56419;SDS011;42323;52.170;7.538;2023-02-28T06:50:36;5.80;;;5.00;;
56419;SDS011;42323;52.170;7.538;2023-02-28T06:53:03;7.85;;;5.50;;
56419;SDS011;42323;52.170;7.538;2023-02-28T06:55:30;6.70;;;5.57;;
56419;SDS011;42323;52.170;7.538;2023-02-28T06:57:56;9.25;;;5.57;;
56419;SDS011;42323;52.170;7.538;2023-02-28T07:00:23;5.93;;;5.30;;
56419;SDS011;42323;52.170;7.538;2023-02-28T07:02:51;7.28;;;5.88;;
56419;SDS011;42323;52.170;7.538;2023-02-28T07:05:17;8.65;;;6.43;;
56419;SDS011;42323;52.170;7.538;2023-02-28T07:07:44;5.40;;;4.90;;
56419;SDS011;42323;52.170;7.538;2023-02-28T07:10:13;5.05;;;4.55;;
56419;SDS011;42323;52.170;7.538;2023-02-28T07:12:45;5.45;;;4.95;;
56419;SDS011;42323;52.170;7.538;2023-02-28T07:15:11;7.32;;;4.72;;
56419;SDS011;42323;52.170;7.538;2023-02-28T07:17:38;8.65;;;5.75;;
56419;SDS011;42323;52.170;7.538;2023-02-28T07:20:05;8.82;;;6.18;;
56419;SDS011;42323;52.170;7.538;2023-02-28T07:22:32;9.48;;;6.03;;
56419;SDS011;42323;52.170;7.538;2023-02-28T07:25:04;7.13;;;5.63;;
56419;SDS011;42323;52.170;7.538;2023-02-28T07:27:31;10.10;;;5.88;;
56419;SDS011;42323;52.170;7.538;2023-02-28T07:29:58;8.20;;;6.03;;
56419;SDS011;42323;52.170;7.538;2023-02-28T07:32:27;8.35;;;5.18;;
56419;SDS011;42323;52.170;7.538;2023-02-28T07:35:00;7.47;;;4.65;;
56419;SDS011;42323;52.170;7.538;2023-02-28T07:37:27;6.70;;;5.10;;
56419;SDS011;42323;52.170;7.538;2023-02-28T07:40:00;8.40;;;5.05;;
56419;SDS011;42323;52.170;7.538;2023-02-28T07:42:41;8.15;;;5.80;;
56419;SDS011;42323;52.170;7.538;2023-02-28T07:45:08;9.73;;;6.28;;
56419;SDS011;42323;52.170;7.538;2023-02-28T07:54:54;13.43;;;6.85;;
56419;SDS011;42323;52.170;7.538;2023-02-28T08:03:41;5.80;;;4.90;;
56419;SDS011;42323;52.170;7.538;2023-02-28T08:06:09;7.35;;;5.78;;
56419;SDS011;42323;52.170;7.538;2023-02-28T08:08:43;6.47;;;5.63;;
56419;SDS011;42323;52.170;7.538;2023-02-28T08:11:10;10.68;;;6.53;;
56419;SDS011;42323;52.170;7.538;2023-02-28T08:14:06;7.80;;;5.57;;
56419;SDS011;42323;52.170;7.538;2023-02-28T08:16:36;9.40;;;6.20;;
56419;SDS011;42323;52.170;7.538;2023-02-28T08:19:10;8.15;;;4.78;;
56419;SDS011;42323;52.170;7.538;2023-02-28T08:21:41;6.78;;;5.22;;
56419;SDS011;42323;52.170;7.538;2023-02-28T08:24:07;7.18;;;5.05;;
56419;SDS011;42323;52.170;7.538;2023-02-28T08:26:35;10.23;;;4.32;;
56419;SDS011;42323;52.170;7.538;2023-02-28T08:29:02;6.78;;;4.35;;
56419;SDS011;42323;52.170;7.538;2023-02-28T08:31:28;4.50;;;4.07;;
56419;SDS011;42323;52.170;7.538;2023-02-28T08:33:55;4.13;;;3.30;;
56419;SDS011;42323;52.170;7.538;2023-02-28T08:36:25;4.20;;;3.80;;
56419;SDS011;42323;52.170;7.538;2023-02-28T08:38:55;5.97;;;4.18;;
56419;SDS011;42323;52.170;7.538;2023-02-28T08:41:26;3.50;;;3.20;;
56419;SDS011;42323;52.170;7.538;2023-02-28T08:43:57;4.40;;;3.40;;
56419;SDS011;42323;52.170;7.538;2023-02-28T08:46:24;4.15;;;2.97;;
56419;SDS011;42323;52.170;7.538;2023-02-28T08:48:54;3.35;;;3.05;;
56419;SDS011;42323;52.170;7.538;2023-02-28T08:51:25;3.42;;;3.00;;
56419;SDS011;42323;52.170;7.538;2023-02-28T08:53:54;4.28;;;2.58;;
56419;SDS011;42323;52.170;7.538;2023-02-28T08:56:28;2.95;;;2.67;;
56419;SDS011;42323;52.170;7.538;2023-02-28T08:58:56;2.50;;;2.30;;
56419;SDS011;42323;52.170;7.538;2023-02-28T09:01:26;2.20;;;2.00;;
56419;SDS011;42323;52.170;7.538;2023-02-28T09:03:55;5.05;;;2.65;;
56419;SDS011;42323;52.170;7.538;2023-02-28T09:06:24;2.70;;;2.50;;
56419;SDS011;42323;52.170;7.538;2023-02-28T09:08:53;2.38;;;2.08;;
56419;SDS011;42323;52.170;7.538;2023-02-28T09:11:24;2.97;;;2.47;;
56419;SDS011;42323;52.170;7.538;2023-02-28T09:13:51;2.65;;;2.45;;
56419;SDS011;42323;52.170;7.538;2023-02-28T09:16:18;2.83;;;2.20;;
56419;SDS011;42323;52.170;7.538;2023-02-28T09:18:45;2.97;;;2.05;;
56419;SDS011;42323;52.170;7.538;2023-02-28T09:21:12;2.20;;;2.00;;
56419;SDS011;42323;52.170;7.538;2023-02-28T09:23:44;3.08;;;2.08;;
56419;SDS011;42323;52.170;7.538;2023-02-28T09:26:19;2.67;;;2.17;;
56419;SDS011;42323;52.170;7.538;2023-02-28T09:28:51;3.05;;;2.47;;
56419;SDS011;42323;52.170;7.538;2023-02-28T09:31:20;2.30;;;2.10;;
56419;SDS011;42323;52.170;7.538;2023-02-28T09:33:49;2.90;;;2.03;;
56419;SDS011;42323;52.170;7.538;2023-02-28T09:36:17;3.72;;;1.90;;
56419;SDS011;42323;52.170;7.538;2023-02-28T09:38:48;2.78;;;1.98;;
56419;SDS011;42323;52.170;7.538;2023-02-28T09:41:18;2.63;;;1.77;;
56419;SDS011;42323;52.170;7.538;2023-02-28T09:43:50;3.13;;;1.90;;
56419;SDS011;42323;52.170;7.538;2023-02-28T09:49:01;2.22;;;1.98;;
56419;SDS011;42323;52.170;7.538;2023-02-28T09:51:52;2.10;;;1.90;;
56419;SDS011;42323;52.170;7.538;2023-02-28T09:54:26;1.70;;;1.50;;
56419;SDS011;42323;52.170;7.538;2023-02-28T09:56:58;1.95;;;1.65;;
56419;SDS011;42323;52.170;7.538;2023-02-28T10:05:20;2.08;;;1.88;;
56419;SDS011;42323;52.170;7.538;2023-02-28T10:08:13;2.20;;;1.73;;
56419;SDS011;42323;52.170;7.538;2023-02-28T10:10:43;2.42;;;1.90;;
56419;SDS011;42323;52.170;7.538;2023-02-28T10:15:43;2.10;;;1.90;;
56419;SDS011;42323;52.170;7.538;2023-02-28T10:18:14;3.20;;;2.10;;
56419;SDS011;42323;52.170;7.538;2023-02-28T10:20:47;1.70;;;1.60;;
56419;SDS011;42323;52.170;7.538;2023-02-28T10:23:22;2.15;;;1.90;;
56419;SDS011;42323;52.170;7.538;2023-02-28T10:25:58;2.15;;;1.95;;
56419;SDS011;42323;52.170;7.538;2023-02-28T10:28:28;3.17;;;2.08;;
56419;SDS011;42323;52.170;7.538;2023-02-28T10:30:57;4.38;;;1.92;;
56419;SDS011;42323;52.170;7.538;2023-02-28T10:33:27;3.25;;;1.80;;
56419;SDS011;42323;52.170;7.538;2023-02-28T10:36:00;3.22;;;2.00;;
56419;SDS011;42323;52.170;7.538;2023-02-28T10:38:31;2.63;;;1.80;;
56419;SDS011;42323;52.170;7.538;2023-02-28T10:43:37;2.03;;;1.50;;
56419;SDS011;42323;52.170;7.538;2023-02-28T10:48:57;2.33;;;1.70;;
56419;SDS011;42323;52.170;7.538;2023-02-28T10:51:39;2.63;;;1.90;;
56419;SDS011;42323;52.170;7.538;2023-02-28T10:54:15;2.22;;;1.70;;
56419;SDS011;42323;52.170;7.538;2023-02-28T10:56:44;2.38;;;1.80;;
56419;SDS011;42323;52.170;7.538;2023-02-28T11:01:42;2.72;;;1.65;;
56419;SDS011;42323;52.170;7.538;2023-02-28T11:06:59;1.98;;;1.77;;
56419;SDS011;42323;52.170;7.538;2023-02-28T11:09:32;2.42;;;1.58;;
56419;SDS011;42323;52.170;7.538;2023-02-28T11:11:59;3.90;;;1.77;;
56419;SDS011;42323;52.170;7.538;2023-02-28T11:14:28;2.30;;;1.67;;
56419;SDS011;42323;52.170;7.538;2023-02-28T11:16:58;2.10;;;1.55;;
56419;SDS011;42323;52.170;7.538;2023-02-28T11:19:40;4.53;;;1.90;;
56419;SDS011;42323;52.170;7.538;2023-02-28T11:22:22;2.58;;;1.80;;
56419;SDS011;42323;52.170;7.538;2023-02-28T11:24:55;1.90;;;1.70;;
56419;SDS011;42323;52.170;7.538;2023-02-28T11:29:58;2.75;;;2.05;;
56419;SDS011;42323;52.170;7.538;2023-02-28T11:32:25;2.65;;;1.80;;
56419;SDS011;42323;52.170;7.538;2023-02-28T11:35:40;2.00;;;1.80;;
56419;SDS011;42323;52.170;7.538;2023-02-28T11:37:51;2.50;;;1.50;;
56419;SDS011;42323;52.170;7.538;2023-02-28T11:40:19;2.72;;;1.63;;
56419;SDS011;42323;52.170;7.538;2023-02-28T11:45:56;2.97;;;1.65;;
56419;SDS011;42323;52.170;7.538;2023-02-28T11:51:42;2.20;;;1.73;;
56419;SDS011;42323;52.170;7.538;2023-02-28T11:56:58;3.35;;;1.70;;
56419;SDS011;42323;52.170;7.538;2023-02-28T12:04:57;1.63;;;1.45;;
56419;SDS011;42323;52.170;7.538;2023-02-28T12:07:54;4.28;;;1.90;;
56419;SDS011;42323;52.170;7.538;2023-02-28T12:10:34;2.53;;;1.98;;
56419;SDS011;42323;52.170;7.538;2023-02-28T12:18:58;3.92;;;1.70;;
56419;SDS011;42323;52.170;7.538;2023-02-28T12:21:47;1.98;;;1.60;;
56419;SDS011;42323;52.170;7.538;2023-02-28T12:26:52;2.30;;;1.55;;
56419;SDS011;42323;52.170;7.538;2023-02-28T12:31:55;3.90;;;1.80;;
56419;SDS011;42323;52.170;7.538;2023-02-28T12:34:27;2.05;;;1.70;;
56419;SDS011;42323;52.170;7.538;2023-02-28T12:36:58;2.13;;;1.90;;
56419;SDS011;42323;52.170;7.538;2023-02-28T12:39:31;2.30;;;2.05;;
56419;SDS011;42323;52.170;7.538;2023-02-28T12:42:22;1.65;;;1.55;;
56419;SDS011;42323;52.170;7.538;2023-02-28T12:50:26;2.00;;;1.70;;
56419;SDS011;42323;52.170;7.538;2023-02-28T12:52:56;1.60;;;1.40;;
56419;SDS011;42323;52.170;7.538;2023-02-28T12:56:19;3.25;;;1.80;;
56419;SDS011;42323;52.170;7.538;2023-02-28T12:58:36;2.20;;;1.67;;
56419;SDS011;42323;52.170;7.538;2023-02-28T13:09:51;1.90;;;1.53;;
56419;SDS011;42323;52.170;7.538;2023-02-28T13:12:20;1.52;;;1.30;;
56419;SDS011;42323;52.170;7.538;2023-02-28T13:14:51;3.35;;;1.88;;
56419;SDS011;42323;52.170;7.538;2023-02-28T13:24:52;2.88;;;1.67;;
56419;SDS011;42323;52.170;7.538;2023-02-28T13:34:49;2.25;;;1.80;;
56419;SDS011;42323;52.170;7.538;2023-02-28T15:20:25;4.97;;;2.05;;
56419;SDS011;42323;52.170;7.538;2023-02-28T15:22:52;4.15;;;1.90;;
56419;SDS011;42323;52.170;7.538;2023-02-28T15:27:50;3.38;;;2.10;;
56419;SDS011;42323;52.170;7.538;2023-02-28T15:30:20;2.97;;;2.00;;
56419;SDS011;42323;52.170;7.538;2023-02-28T15:35:49;3.30;;;1.98;;
56419;SDS011;42323;52.170;7.538;2023-02-28T15:38:17;2.45;;;1.77;;
56419;SDS011;42323;52.170;7.538;2023-02-28T15:40:53;2.45;;;1.70;;
56419;SDS011;42323;52.170;7.538;2023-02-28T15:45:52;2.80;;;2.00;;
56419;SDS011;42323;52.170;7.538;2023-02-28T15:50:52;2.00;;;1.60;;
56419;SDS011;42323;52.170;7.538;2023-02-28T15:53:23;2.63;;;1.85;;
56419;SDS011;42323;52.170;7.538;2023-02-28T15:55:53;2.63;;;1.90;;
56419;SDS011;42323;52.170;7.538;2023-02-28T15:58:22;2.33;;;1.88;;
56419;SDS011;42323;52.170;7.538;2023-02-28T16:01:07;3.13;;;2.42;;
56419;SDS011;42323;52.170;7.538;2023-02-28T16:04:04;3.95;;;2.15;;
56419;SDS011;42323;52.170;7.538;2023-02-28T16:11:46;2.25;;;1.80;;
56419;SDS011;42323;52.170;7.538;2023-02-28T16:14:16;3.10;;;1.92;;
56419;SDS011;42323;52.170;7.538;2023-02-28T16:16:45;2.45;;;2.25;;
56419;SDS011;42323;52.170;7.538;2023-02-28T16:19:15;3.92;;;2.25;;
56419;SDS011;42323;52.170;7.538;2023-02-28T16:21:41;3.45;;;2.30;;
56419;SDS011;42323;52.170;7.538;2023-02-28T16:24:10;3.42;;;2.78;;
56419;SDS011;42323;52.170;7.538;2023-02-28T16:26:37;6.43;;;2.40;;
56419;SDS011;42323;52.170;7.538;2023-02-28T16:29:06;4.55;;;2.88;;
56419;SDS011;42323;52.170;7.538;2023-02-28T16:31:35;3.17;;;2.67;;
56419;SDS011;42323;52.170;7.538;2023-02-28T16:34:04;3.72;;;2.60;;
56419;SDS011;42323;52.170;7.538;2023-02-28T16:36:31;3.88;;;3.05;;
56419;SDS011;42323;52.170;7.538;2023-02-28T16:38:57;3.80;;;3.17;;
56419;SDS011;42323;52.170;7.538;2023-02-28T16:41:25;4.53;;;2.63;;
56419;SDS011;42323;52.170;7.538;2023-02-28T16:43:54;6.85;;;2.92;;
56419;SDS011;42323;52.170;7.538;2023-02-28T16:46:33;4.90;;;3.53;;
56419;SDS011;42323;52.170;7.538;2023-02-28T16:49:00;4.30;;;3.13;;
56419;SDS011;42323;52.170;7.538;2023-02-28T16:51:27;3.72;;;2.90;;
56419;SDS011;42323;52.170;7.538;2023-02-28T16:53:54;5.18;;;3.50;;
56419;SDS011;42323;52.170;7.538;2023-02-28T16:56:22;2.88;;;2.40;;
56419;SDS011;42323;52.170;7.538;2023-02-28T16:58:51;3.65;;;2.78;;
56419;SDS011;42323;52.170;7.538;2023-02-28T17:01:21;3.63;;;2.88;;
56419;SDS011;42323;52.170;7.538;2023-02-28T17:03:48;3.67;;;3.35;;
56419;SDS011;42323;52.170;7.538;2023-02-28T17:06:16;4.45;;;3.05;;
56419;SDS011;42323;52.170;7.538;2023-02-28T17:08:48;3.85;;;2.97;;
56419;SDS011;42323;52.170;7.538;2023-02-28T17:11:16;4.03;;;2.85;;
56419;SDS011;42323;52.170;7.538;2023-02-28T17:13:43;4.07;;;2.70;;
56419;SDS011;42323;52.170;7.538;2023-02-28T17:16:28;6.97;;;3.13;;
56419;SDS011;42323;52.170;7.538;2023-02-28T17:18:58;5.03;;;3.38;;
56419;SDS011;42323;52.170;7.538;2023-02-28T17:21:26;4.80;;;3.30;;
56419;SDS011;42323;52.170;7.538;2023-02-28T17:23:54;4.90;;;3.38;;
56419;SDS011;42323;52.170;7.538;2023-02-28T17:26:20;3.85;;;3.50;;
56419;SDS011;42323;52.170;7.538;2023-02-28T17:28:48;7.93;;;4.15;;
56419;SDS011;42323;52.170;7.538;2023-02-28T17:31:15;5.30;;;4.32;;
56419;SDS011;42323;52.170;7.538;2023-02-28T17:33:41;5.13;;;3.53;;
56419;SDS011;42323;52.170;7.538;2023-02-28T17:36:13;6.63;;;3.95;;
56419;SDS011;42323;52.170;7.538;2023-02-28T17:38:41;6.75;;;3.47;;
56419;SDS011;42323;52.170;7.538;2023-02-28T17:41:09;4.38;;;3.30;;
56419;SDS011;42323;52.170;7.538;2023-02-28T17:43:36;5.88;;;4.70;;
56419;SDS011;42323;52.170;7.538;2023-02-28T17:46:05;8.70;;;5.03;;
56419;SDS011;42323;52.170;7.538;2023-02-28T17:48:34;8.23;;;5.65;;
56419;SDS011;42323;52.170;7.538;2023-02-28T17:51:02;7.38;;;5.38;;
56419;SDS011;42323;52.170;7.538;2023-02-28T17:53:28;10.05;;;6.05;;
56419;SDS011;42323;52.170;7.538;2023-02-28T17:55:55;10.32;;;5.70;;
56419;SDS011;42323;52.170;7.538;2023-02-28T17:58:21;10.15;;;5.85;;
56419;SDS011;42323;52.170;7.538;2023-02-28T18:00:48;8.10;;;5.38;;
56419;SDS011;42323;52.170;7.538;2023-02-28T18:03:19;7.55;;;4.97;;
56419;SDS011;42323;52.170;7.538;2023-02-28T18:05:46;8.38;;;5.05;;
56419;SDS011;42323;52.170;7.538;2023-02-28T18:08:15;7.38;;;5.28;;
56419;SDS011;42323;52.170;7.538;2023-02-28T18:10:42;7.25;;;5.47;;
56419;SDS011;42323;52.170;7.538;2023-02-28T18:13:08;11.63;;;6.13;;
56419;SDS011;42323;52.170;7.538;2023-02-28T18:15:37;8.57;;;5.60;;
56419;SDS011;42323;52.170;7.538;2023-02-28T18:18:14;9.45;;;6.07;;
56419;SDS011;42323;52.170;7.538;2023-02-28T18:23:30;11.90;;;6.70;;
56419;SDS011;42323;52.170;7.538;2023-02-28T18:26:14;11.43;;;7.15;;
56419;SDS011;42323;52.170;7.538;2023-02-28T18:28:56;9.55;;;7.43;;
56419;SDS011;42323;52.170;7.538;2023-02-28T18:31:56;12.07;;;7.63;;
56419;SDS011;42323;52.170;7.538;2023-02-28T18:34:41;15.75;;;8.93;;
56419;SDS011;42323;52.170;7.538;2023-02-28T18:37:10;13.40;;;8.38;;
56419;SDS011;42323;52.170;7.538;2023-02-28T18:39:37;15.82;;;8.77;;
56419;SDS011;42323;52.170;7.538;2023-02-28T18:42:04;14.70;;;8.55;;
56419;SDS011;42323;52.170;7.538;2023-02-28T18:44:37;14.07;;;8.80;;
56419;SDS011;42323;52.170;7.538;2023-02-28T18:50:53;11.90;;;8.27;;
56419;SDS011;42323;52.170;7.538;2023-02-28T18:53:37;15.52;;;9.63;;
56419;SDS011;42323;52.170;7.538;2023-02-28T18:56:19;17.27;;;9.90;;
56419;SDS011;42323;52.170;7.538;2023-02-28T18:58:51;14.18;;;7.60;;
56419;SDS011;42323;52.170;7.538;2023-02-28T19:01:27;16.75;;;9.27;;
56419;SDS011;42323;52.170;7.538;2023-02-28T19:04:01;14.50;;;9.13;;
56419;SDS011;42323;52.170;7.538;2023-02-28T19:06:37;14.27;;;7.72;;
56419;SDS011;42323;52.170;7.538;2023-02-28T19:09:12;11.88;;;8.35;;
56419;SDS011;42323;52.170;7.538;2023-02-28T19:11:39;16.38;;;8.70;;
56419;SDS011;42323;52.170;7.538;2023-02-28T19:14:12;13.15;;;8.35;;
56419;SDS011;42323;52.170;7.538;2023-02-28T19:16:48;12.00;;;8.70;;
56419;SDS011;42323;52.170;7.538;2023-02-28T19:19:18;13.90;;;8.70;;
56419;SDS011;42323;52.170;7.538;2023-02-28T19:21:45;10.82;;;7.93;;
56419;SDS011;42323;52.170;7.538;2023-02-28T19:24:13;15.82;;;9.18;;
56419;SDS011;42323;52.170;7.538;2023-02-28T19:26:45;13.27;;;9.52;;
56419;SDS011;42323;52.170;7.538;2023-02-28T19:29:28;15.68;;;9.73;;